Time;durP1;ratioP1;P1;durP2;ratioP2;P2;SDS_P1;SDS_P2;PMS_P1;PMS_P2;Temp;Humidity;BMP_temperature;BMP_pressure;BME280_temperature;BME280_humidity;BME280_pressure;Samples;Min_cycle;Max_cycle;Signal;HPM_P1;HPM_P2
2022/07/06 00:00:52;;;;;;;0.15;0.15;;;;;;;;;;4914204;29;20083;-63
2022/07/06 00:03:17;;;;;;;0.00;0.00;;;;;;;;;;4914349;29;20477;-64
2022/07/06 00:05:42;;;;;;;0.00;0.00;;;;;;;;;;4913711;29;20056;-64
2022/07/06 00:08:07;;;;;;;0.00;0.00;;;;;;;;;;4914811;29;20151;-62
2022/07/06 00:10:33;;;;;;;0.00;0.00;;;;;;;;;;4914028;29;20058;-62
2022/07/06 00:12:58;;;;;;;0.00;0.00;;;;;;;;;;4914385;29;20380;-62
2022/07/06 00:15:23;;;;;;;0.10;0.10;;;;;;;;;;4912865;29;20024;-62
2022/07/06 00:17:48;;;;;;;0.00;0.00;;;;;;;;;;4914313;29;20039;-63
2022/07/06 00:20:14;;;;;;;0.03;0.03;;;;;;;;;;4913581;29;20020;-62
2022/07/06 00:22:39;;;;;;;0.00;0.00;;;;;;;;;;4914279;29;20028;-62
2022/07/06 00:25:04;;;;;;;0.00;0.00;;;;;;;;;;4914146;29;20056;-62
2022/07/06 00:27:30;;;;;;;0.00;0.00;;;;;;;;;;4913574;29;20386;-63
2022/07/06 00:29:55;;;;;;;0.45;0.20;;;;;;;;;;4915335;29;20027;-65
2022/07/06 00:32:20;;;;;;;0.08;0.08;;;;;;;;;;4913832;29;20044;-64
2022/07/06 00:34:45;;;;;;;0.00;0.00;;;;;;;;;;4913954;29;20048;-65
2022/07/06 00:37:10;;;;;;;2.20;0.88;;;;;;;;;;4896411;29;20035;-64
2022/07/06 00:39:36;;;;;;;0.22;0.22;;;;;;;;;;4913825;29;20028;-62
2022/07/06 00:42:01;;;;;;;0.00;0.00;;;;;;;;;;4913887;29;20016;-63
2022/07/06 00:44:26;;;;;;;0.00;0.00;;;;;;;;;;4913634;29;20052;-63
2022/07/06 00:46:52;;;;;;;0.00;0.00;;;;;;;;;;4913892;29;20529;-64
2022/07/06 00:52:01;;;;;;;0.10;0.10;;;;;;;;;;4912452;29;20390;-65
2022/07/06 00:54:27;;;;;;;0.00;0.00;;;;;;;;;;4913182;29;20036;-64
2022/07/06 00:56:53;;;;;;;0.30;0.30;;;;;;;;;;4913516;29;20027;-65
2022/07/06 00:59:18;;;;;;;0.00;0.00;;;;;;;;;;4914220;29;20024;-64
2022/07/06 01:01:43;;;;;;;0.00;0.00;;;;;;;;;;4913706;29;20056;-63
2022/07/06 01:04:09;;;;;;;0.00;0.00;;;;;;;;;;4913321;29;20038;-63
2022/07/06 01:06:34;;;;;;;0.00;0.00;;;;;;;;;;4913154;29;20063;-64
2022/07/06 01:08:59;;;;;;;0.00;0.00;;;;;;;;;;4912950;29;20043;-65
2022/07/06 01:11:25;;;;;;;0.00;0.00;;;;;;;;;;4913151;29;20039;-65
2022/07/06 01:13:50;;;;;;;0.00;0.00;;;;;;;;;;4913148;29;20028;-65
2022/07/06 01:16:16;;;;;;;0.00;0.00;;;;;;;;;;4911500;29;20039;-65
2022/07/06 01:18:41;;;;;;;0.00;0.00;;;;;;;;;;4913290;29;20470;-65
2022/07/06 01:21:08;;;;;;;0.00;0.00;;;;;;;;;;4913161;29;20032;-66
2022/07/06 01:23:38;;;;;;;0.00;0.00;;;;;;;;;;4912721;29;20115;-65
2022/07/06 01:26:03;;;;;;;0.00;0.00;;;;;;;;;;4913573;29;20020;-64
2022/07/06 01:28:28;;;;;;;0.00;0.00;;;;;;;;;;4912467;29;20490;-63
2022/07/06 01:30:53;;;;;;;0.25;0.25;;;;;;;;;;4913257;29;20028;-63
2022/07/06 01:33:18;;;;;;;0.00;0.00;;;;;;;;;;4912295;29;20059;-64
2022/07/06 01:35:44;;;;;;;0.00;0.00;;;;;;;;;;4912933;29;20077;-63
2022/07/06 01:38:09;;;;;;;0.00;0.00;;;;;;;;;;4913010;29;20115;-63
2022/07/06 01:40:34;;;;;;;0.00;0.00;;;;;;;;;;4912842;29;20454;-63
2022/07/06 01:42:59;;;;;;;0.00;0.00;;;;;;;;;;4913598;29;20016;-64
2022/07/06 01:45:25;;;;;;;0.00;0.00;;;;;;;;;;4912723;29;20295;-64
2022/07/06 01:47:50;;;;;;;0.00;0.00;;;;;;;;;;4912849;29;20103;-63
2022/07/06 01:50:15;;;;;;;0.00;0.00;;;;;;;;;;4912383;29;20117;-64
2022/07/06 01:52:41;;;;;;;0.00;0.00;;;;;;;;;;4912861;29;21391;-63
2022/07/06 01:55:06;;;;;;;0.00;0.00;;;;;;;;;;4913002;29;20032;-64
2022/07/06 01:57:31;;;;;;;0.00;0.00;;;;;;;;;;4913441;29;20047;-64
2022/07/06 01:59:57;;;;;;;0.00;0.00;;;;;;;;;;4913116;29;20433;-64
2022/07/06 02:02:22;;;;;;;0.00;0.00;;;;;;;;;;4912431;29;20027;-65
2022/07/06 02:04:47;;;;;;;0.05;0.05;;;;;;;;;;4912813;29;20339;-62
2022/07/06 02:07:12;;;;;;;0.00;0.00;;;;;;;;;;4912453;29;20024;-63
2022/07/06 02:09:37;;;;;;;0.00;0.00;;;;;;;;;;4912377;29;20456;-63
2022/07/06 02:12:03;;;;;;;0.00;0.00;;;;;;;;;;4912758;29;20024;-63
2022/07/06 02:14:28;;;;;;;0.00;0.00;;;;;;;;;;4910707;29;20111;-62
2022/07/06 02:16:53;;;;;;;0.00;0.00;;;;;;;;;;4912712;29;20111;-63
2022/07/06 02:19:19;;;;;;;0.00;0.00;;;;;;;;;;4912100;29;20056;-62
2022/07/06 02:21:44;;;;;;;0.00;0.00;;;;;;;;;;4914280;29;20111;-63
2022/07/06 02:24:09;;;;;;;0.00;0.00;;;;;;;;;;4916289;29;20064;-63
2022/07/06 02:26:34;;;;;;;0.00;0.00;;;;;;;;;;4915537;29;20350;-63
2022/07/06 02:28:59;;;;;;;0.00;0.00;;;;;;;;;;4914295;29;20107;-63
2022/07/06 02:31:24;;;;;;;0.00;0.00;;;;;;;;;;4916024;29;21760;-63
2022/07/06 02:33:50;;;;;;;0.00;0.00;;;;;;;;;;4914824;29;20050;-63
2022/07/06 02:36:15;;;;;;;0.00;0.00;;;;;;;;;;4915532;29;20043;-63
2022/07/06 02:38:40;;;;;;;0.00;0.00;;;;;;;;;;4916348;29;20080;-64
2022/07/06 02:41:05;;;;;;;0.00;0.00;;;;;;;;;;4916347;29;20051;-63
2022/07/06 02:43:31;;;;;;;0.00;0.00;;;;;;;;;;4915676;29;20079;-63
2022/07/06 02:45:56;;;;;;;0.00;0.00;;;;;;;;;;4915590;29;20544;-64
2022/07/06 02:48:21;;;;;;;0.00;0.00;;;;;;;;;;4915068;29;20036;-63
2022/07/06 02:50:46;;;;;;;0.00;0.00;;;;;;;;;;4916214;29;20028;-63
2022/07/06 02:53:12;;;;;;;0.00;0.00;;;;;;;;;;4914414;29;20059;-64
2022/07/06 02:55:37;;;;;;;0.00;0.00;;;;;;;;;;4917166;29;20024;-63
2022/07/06 02:58:02;;;;;;;0.00;0.00;;;;;;;;;;4915053;29;20043;-63
2022/07/06 03:00:27;;;;;;;0.00;0.00;;;;;;;;;;4914962;29;20382;-62
2022/07/06 03:02:53;;;;;;;0.00;0.00;;;;;;;;;;4915436;29;20111;-63
2022/07/06 03:05:18;;;;;;;0.00;0.00;;;;;;;;;;4915189;29;20031;-63
2022/07/06 03:07:43;;;;;;;0.00;0.00;;;;;;;;;;4915726;29;20498;-62
2022/07/06 03:10:08;;;;;;;0.00;0.00;;;;;;;;;;4915880;29;20031;-62
2022/07/06 03:12:33;;;;;;;0.00;0.00;;;;;;;;;;4915225;29;20103;-63
2022/07/06 03:14:59;;;;;;;0.00;0.00;;;;;;;;;;4915344;29;20083;-63
2022/07/06 03:17:24;;;;;;;0.00;0.00;;;;;;;;;;4914346;29;20147;-62
2022/07/06 03:19:49;;;;;;;0.00;0.00;;;;;;;;;;4915219;29;20383;-63
2022/07/06 03:22:15;;;;;;;0.00;0.00;;;;;;;;;;4914742;29;20035;-63
2022/07/06 03:24:40;;;;;;;0.00;0.00;;;;;;;;;;4916484;29;20039;-63
2022/07/06 03:27:05;;;;;;;0.00;0.00;;;;;;;;;;4898155;29;20087;-63
2022/07/06 03:29:30;;;;;;;0.00;0.00;;;;;;;;;;4914738;29;20430;-63
2022/07/06 03:31:56;;;;;;;0.00;0.00;;;;;;;;;;4914323;29;20100;-63
2022/07/06 03:34:21;;;;;;;0.00;0.00;;;;;;;;;;4914667;29;20500;-63
2022/07/06 03:36:46;;;;;;;0.00;0.00;;;;;;;;;;4914235;29;20454;-63
2022/07/06 03:39:11;;;;;;;0.00;0.00;;;;;;;;;;4915244;29;20526;-63
2022/07/06 03:41:37;;;;;;;0.00;0.00;;;;;;;;;;4914599;29;20091;-64
2022/07/06 03:44:02;;;;;;;4.57;4.28;;;;;;;;;;4914783;29;20291;-63
2022/07/06 03:46:28;;;;;;;0.00;0.00;;;;;;;;;;4914404;29;20430;-63
2022/07/06 03:48:53;;;;;;;0.00;0.00;;;;;;;;;;4915031;29;20051;-63
2022/07/06 03:51:18;;;;;;;0.00;0.00;;;;;;;;;;4913233;29;20086;-62
2022/07/06 03:53:43;;;;;;;0.00;0.00;;;;;;;;;;4916104;29;20256;-62
2022/07/06 03:56:27;;;;;;;0.00;0.00;;;;;;;;;;4914634;29;20115;-63
2022/07/06 03:58:53;;;;;;;0.00;0.00;;;;;;;;;;4913549;29;20020;-63
2022/07/06 04:01:18;;;;;;;0.00;0.00;;;;;;;;;;4914158;29;20050;-63
2022/07/06 04:03:44;;;;;;;0.00;0.00;;;;;;;;;;4914507;29;20028;-63
2022/07/06 04:06:09;;;;;;;0.00;0.00;;;;;;;;;;4914496;29;20719;-63
2022/07/06 04:08:35;;;;;;;0.00;0.00;;;;;;;;;;4914182;29;20115;-62
2022/07/06 04:11:00;;;;;;;0.00;0.00;;;;;;;;;;4914480;29;20074;-62
2022/07/06 04:13:25;;;;;;;0.00;0.00;;;;;;;;;;4912265;29;20039;-62
2022/07/06 04:15:51;;;;;;;0.00;0.00;;;;;;;;;;4913913;29;20478;-61
2022/07/06 04:18:16;;;;;;;0.00;0.00;;;;;;;;;;4914419;29;20107;-64
2022/07/06 04:20:41;;;;;;;0.00;0.00;;;;;;;;;;4914112;29;20118;-61
2022/07/06 04:23:06;;;;;;;0.00;0.00;;;;;;;;;;4913585;29;20028;-61
2022/07/06 04:25:32;;;;;;;0.00;0.00;;;;;;;;;;4913730;29;20023;-61
2022/07/06 04:27:57;;;;;;;0.00;0.00;;;;;;;;;;4914069;29;20111;-61
2022/07/06 04:30:22;;;;;;;0.00;0.00;;;;;;;;;;4912082;29;20024;-61
2022/07/06 04:32:47;;;;;;;0.00;0.00;;;;;;;;;;4913857;29;20048;-61
2022/07/06 04:35:13;;;;;;;0.00;0.00;;;;;;;;;;4914105;29;20043;-61
2022/07/06 04:37:38;;;;;;;0.00;0.00;;;;;;;;;;4913514;29;20890;-62
2022/07/06 04:40:04;;;;;;;0.00;0.00;;;;;;;;;;4914116;29;20063;-62
2022/07/06 04:42:29;;;;;;;0.00;0.00;;;;;;;;;;4913280;29;20143;-62
2022/07/06 04:44:55;;;;;;;0.28;0.28;;;;;;;;;;4913096;29;20043;-62
2022/07/06 04:47:20;;;;;;;0.00;0.00;;;;;;;;;;4913319;29;20024;-62
2022/07/06 04:49:45;;;;;;;0.00;0.00;;;;;;;;;;4914892;29;20130;-62
2022/07/06 04:52:10;;;;;;;0.00;0.00;;;;;;;;;;4913527;29;20032;-62
2022/07/06 04:54:35;;;;;;;0.00;0.00;;;;;;;;;;4913124;29;20043;-62
2022/07/06 04:57:01;;;;;;;0.00;0.00;;;;;;;;;;4913530;29;20063;-62
2022/07/06 04:59:26;;;;;;;0.00;0.00;;;;;;;;;;4912572;29;20022;-63
2022/07/06 05:01:51;;;;;;;0.08;0.08;;;;;;;;;;4915837;29;20473;-62
2022/07/06 05:04:19;;;;;;;0.00;0.00;;;;;;;;;;4915479;29;20481;-61
2022/07/06 05:06:45;;;;;;;0.00;0.00;;;;;;;;;;4916513;29;20024;-61
2022/07/06 05:09:10;;;;;;;0.00;0.00;;;;;;;;;;4915705;29;20024;-61
2022/07/06 05:11:37;;;;;;;0.00;0.00;;;;;;;;;;4916110;29;20071;-61
2022/07/06 05:14:02;;;;;;;0.00;0.00;;;;;;;;;;4915995;29;20051;-62
2022/07/06 05:16:27;;;;;;;0.00;0.00;;;;;;;;;;4915511;29;20059;-61
2022/07/06 05:18:53;;;;;;;0.00;0.00;;;;;;;;;;4914446;29;20450;-61
2022/07/06 05:21:18;;;;;;;0.00;0.00;;;;;;;;;;4916145;29;20798;-62
2022/07/06 05:23:43;;;;;;;0.00;0.00;;;;;;;;;;4911044;29;20028;-62
2022/07/06 05:26:08;;;;;;;0.00;0.00;;;;;;;;;;4915629;29;20032;-62
2022/07/06 05:28:33;;;;;;;0.00;0.00;;;;;;;;;;4915314;29;20023;-62
2022/07/06 05:30:59;;;;;;;0.00;0.00;;;;;;;;;;4914890;29;20095;-62
2022/07/06 05:33:24;;;;;;;0.00;0.00;;;;;;;;;;4912748;29;20131;-62
2022/07/06 05:35:49;;;;;;;0.10;0.10;;;;;;;;;;4914775;29;20028;-62
2022/07/06 05:38:15;;;;;;;0.00;0.00;;;;;;;;;;4912616;29;20032;-62
2022/07/06 05:40:40;;;;;;;0.00;0.00;;;;;;;;;;4912469;29;20031;-66
2022/07/06 05:43:05;;;;;;;0.00;0.00;;;;;;;;;;4909433;29;20327;-63
2022/07/06 05:45:31;;;;;;;0.00;0.00;;;;;;;;;;4907273;29;20048;-63
2022/07/06 05:50:40;;;;;;;0.98;0.98;;;;;;;;;;4910215;29;20047;-63
2022/07/06 05:53:06;;;;;;;0.00;0.00;;;;;;;;;;4912140;29;20686;-63
2022/07/06 05:55:31;;;;;;;0.00;0.00;;;;;;;;;;4911659;29;20032;-64
2022/07/06 05:57:56;;;;;;;13.32;0.95;;;;;;;;;;4912355;29;20024;-64
2022/07/06 06:00:24;;;;;;;0.00;0.00;;;;;;;;;;4911824;29;20374;-65
2022/07/06 06:02:49;;;;;;;0.00;0.00;;;;;;;;;;4911150;29;20036;-64
2022/07/06 06:05:15;;;;;;;0.00;0.00;;;;;;;;;;4908950;29;20026;-65
2022/07/06 06:07:41;;;;;;;0.13;0.13;;;;;;;;;;4908233;29;20107;-65
2022/07/06 06:10:08;;;;;;;1.58;0.73;;;;;;;;;;4908216;29;20039;-65
2022/07/06 06:12:33;;;;;;;0.00;0.00;;;;;;;;;;4910913;29;20024;-65
2022/07/06 06:14:58;;;;;;;0.10;0.10;;;;;;;;;;4909862;29;20520;-64
2022/07/06 06:17:24;;;;;;;0.00;0.00;;;;;;;;;;4909810;29;20541;-64
2022/07/06 06:19:49;;;;;;;0.10;0.10;;;;;;;;;;4908778;29;20501;-65
2022/07/06 06:22:14;;;;;;;0.00;0.00;;;;;;;;;;4911693;29;20338;-65
2022/07/06 06:24:39;;;;;;;0.10;0.10;;;;;;;;;;4912031;29;20304;-65
2022/07/06 06:27:04;;;;;;;0.00;0.00;;;;;;;;;;4913172;29;20271;-65
2022/07/06 06:29:30;;;;;;;0.00;0.00;;;;;;;;;;4914153;29;20362;-65
2022/07/06 06:31:55;;;;;;;0.00;0.00;;;;;;;;;;4914581;29;20048;-65
2022/07/06 06:34:20;;;;;;;0.65;0.13;;;;;;;;;;4914293;29;20030;-64
2022/07/06 06:36:45;;;;;;;0.00;0.00;;;;;;;;;;4914124;29;20036;-65
2022/07/06 06:39:11;;;;;;;0.00;0.00;;;;;;;;;;4911974;29;20040;-65
2022/07/06 06:41:36;;;;;;;0.05;0.05;;;;;;;;;;4914065;29;21278;-65
2022/07/06 06:44:01;;;;;;;4.90;0.60;;;;;;;;;;4913080;29;20550;-64
2022/07/06 06:46:26;;;;;;;0.00;0.00;;;;;;;;;;4914065;29;20351;-65
2022/07/06 06:48:52;;;;;;;0.00;0.00;;;;;;;;;;4913074;29;20036;-64
2022/07/06 06:51:17;;;;;;;0.47;0.30;;;;;;;;;;4913743;29;20028;-64
2022/07/06 06:53:42;;;;;;;0.15;0.15;;;;;;;;;;4913218;29;20094;-65
2022/07/06 06:56:08;;;;;;;0.10;0.10;;;;;;;;;;4910696;29;20056;-63
2022/07/06 06:58:33;;;;;;;0.35;0.35;;;;;;;;;;4912067;29;20095;-64
2022/07/06 07:00:59;;;;;;;0.00;0.00;;;;;;;;;;4911498;29;20684;-64
2022/07/06 07:03:24;;;;;;;0.52;0.52;;;;;;;;;;4911924;29;20060;-65
2022/07/06 07:05:49;;;;;;;0.00;0.00;;;;;;;;;;4912154;29;20084;-64
2022/07/06 07:08:15;;;;;;;3.38;0.85;;;;;;;;;;4914471;29;20036;-64
2022/07/06 07:10:40;;;;;;;0.00;0.00;;;;;;;;;;4915671;29;20028;-64
2022/07/06 07:13:05;;;;;;;0.85;0.20;;;;;;;;;;4916646;29;20028;-64
2022/07/06 07:15:30;;;;;;;0.00;0.00;;;;;;;;;;4916085;29;20027;-64
2022/07/06 07:17:56;;;;;;;0.00;0.00;;;;;;;;;;4915515;29;20088;-63
2022/07/06 07:20:21;;;;;;;0.00;0.00;;;;;;;;;;4915619;29;20035;-63
2022/07/06 07:22:46;;;;;;;0.05;0.05;;;;;;;;;;4915222;29;20028;-63
2022/07/06 07:25:12;;;;;;;0.25;0.25;;;;;;;;;;4915052;29;20059;-64
2022/07/06 07:27:37;;;;;;;0.10;0.05;;;;;;;;;;4911474;29;20032;-61
2022/07/06 07:30:03;;;;;;;0.00;0.00;;;;;;;;;;4912430;29;20032;-63
2022/07/06 07:32:28;;;;;;;0.20;0.20;;;;;;;;;;4911845;29;20103;-62
2022/07/06 07:34:53;;;;;;;0.00;0.00;;;;;;;;;;4912303;29;20039;-62
2022/07/06 07:37:18;;;;;;;0.30;0.30;;;;;;;;;;4912061;29;20032;-62
2022/07/06 07:39:44;;;;;;;0.00;0.00;;;;;;;;;;4911977;29;20024;-62
2022/07/06 07:42:09;;;;;;;1.33;1.23;;;;;;;;;;4912491;29;20040;-62
2022/07/06 07:44:34;;;;;;;0.10;0.10;;;;;;;;;;4912839;29;20272;-62
2022/07/06 07:46:59;;;;;;;0.00;0.00;;;;;;;;;;4911881;29;20034;-63
2022/07/06 07:49:24;;;;;;;0.00;0.00;;;;;;;;;;4911552;29;20264;-62
2022/07/06 07:51:50;;;;;;;1.50;0.97;;;;;;;;;;4908399;29;20268;-63
2022/07/06 07:54:16;;;;;;;2.90;0.85;;;;;;;;;;4911034;29;20264;-64
2022/07/06 07:56:41;;;;;;;0.00;0.00;;;;;;;;;;4911519;29;20028;-64
2022/07/06 07:59:06;;;;;;;0.60;0.32;;;;;;;;;;4912189;29;20580;-64
2022/07/06 08:01:32;;;;;;;0.35;0.28;;;;;;;;;;4911121;29;20055;-63
2022/07/06 08:03:57;;;;;;;0.00;0.00;;;;;;;;;;4908694;29;20039;-63
2022/07/06 08:06:22;;;;;;;0.00;0.00;;;;;;;;;;4909966;29;20394;-64
2022/07/06 08:08:48;;;;;;;0.00;0.00;;;;;;;;;;4911862;29;20142;-64
2022/07/06 08:11:13;;;;;;;0.30;0.30;;;;;;;;;;4914213;29;20331;-64
2022/07/06 08:13:38;;;;;;;0.00;0.00;;;;;;;;;;4914180;29;20268;-64
2022/07/06 08:16:03;;;;;;;0.00;0.00;;;;;;;;;;4914557;29;20028;-64
2022/07/06 08:18:29;;;;;;;0.00;0.00;;;;;;;;;;4909270;29;20028;-63
2022/07/06 08:20:56;;;;;;;0.00;0.00;;;;;;;;;;4910483;29;20036;-64
2022/07/06 08:23:21;;;;;;;2.42;0.47;;;;;;;;;;4912267;29;20661;-65
2022/07/06 08:25:47;;;;;;;0.00;0.00;;;;;;;;;;4910959;29;20036;-63
2022/07/06 08:28:13;;;;;;;0.13;0.13;;;;;;;;;;4910854;29;20056;-63
2022/07/06 08:30:38;;;;;;;0.20;0.13;;;;;;;;;;4909348;29;20084;-63
2022/07/06 08:33:03;;;;;;;0.00;0.00;;;;;;;;;;4909072;29;20549;-63
2022/07/06 08:35:29;;;;;;;1.00;0.43;;;;;;;;;;4909970;29;20092;-62
2022/07/06 08:37:54;;;;;;;0.00;0.00;;;;;;;;;;4909106;29;20028;-63
2022/07/06 08:40:19;;;;;;;0.00;0.00;;;;;;;;;;4913528;29;20466;-62
2022/07/06 08:42:46;;;;;;;0.00;0.00;;;;;;;;;;4913740;29;20111;-61
2022/07/06 08:45:12;;;;;;;0.00;0.00;;;;;;;;;;4912122;29;20393;-61
2022/07/06 08:47:37;;;;;;;0.00;0.00;;;;;;;;;;4912179;29;20020;-62
2022/07/06 08:50:03;;;;;;;0.00;0.00;;;;;;;;;;4913328;29;20020;-62
2022/07/06 08:52:29;;;;;;;0.00;0.00;;;;;;;;;;4913229;29;20060;-62
2022/07/06 08:54:55;;;;;;;0.10;0.10;;;;;;;;;;4897357;29;20377;-62
2022/07/06 08:57:21;;;;;;;0.05;0.05;;;;;;;;;;4913800;29;20115;-62
2022/07/06 08:59:46;;;;;;;17.52;2.30;;;;;;;;;;4913795;29;20055;-62
2022/07/06 09:02:13;;;;;;;0.57;0.57;;;;;;;;;;4913496;29;20110;-62
2022/07/06 09:04:42;;;;;;;0.00;0.00;;;;;;;;;;4913424;29;20055;-62
2022/07/06 09:07:07;;;;;;;0.00;0.00;;;;;;;;;;4913299;29;20530;-63
2022/07/06 09:09:32;;;;;;;0.00;0.00;;;;;;;;;;4915295;29;20114;-62
2022/07/06 09:11:58;;;;;;;0.15;0.15;;;;;;;;;;4914584;29;20482;-63
2022/07/06 09:14:23;;;;;;;0.00;0.00;;;;;;;;;;4913540;29;20035;-62
2022/07/06 09:17:01;;;;;;;0.00;0.00;;;;;;;;;;4912837;29;20028;-63
2022/07/06 09:19:26;;;;;;;0.00;0.00;;;;;;;;;;4913510;29;20032;-62
2022/07/06 09:21:52;;;;;;;0.00;0.00;;;;;;;;;;4914042;29;20050;-62
2022/07/06 09:24:17;;;;;;;0.00;0.00;;;;;;;;;;4914218;29;20267;-62
2022/07/06 09:26:43;;;;;;;0.00;0.00;;;;;;;;;;4913345;29;20050;-62
2022/07/06 09:29:08;;;;;;;0.00;0.00;;;;;;;;;;4913474;29;20116;-62
2022/07/06 09:31:33;;;;;;;0.00;0.00;;;;;;;;;;4912273;29;20068;-62
2022/07/06 09:34:01;;;;;;;0.00;0.00;;;;;;;;;;4913763;29;20048;-62
2022/07/06 09:36:39;;;;;;;0.00;0.00;;;;;;;;;;4913389;29;20120;-62
2022/07/06 09:39:24;;;;;;;0.00;0.00;;;;;;;;;;4914397;29;20535;-62
2022/07/06 09:41:51;;;;;;;0.00;0.00;;;;;;;;;;4911555;29;20043;-61
2022/07/06 09:44:24;;;;;;;0.00;0.00;;;;;;;;;;4913033;29;20024;-62
2022/07/06 09:46:49;;;;;;;0.20;0.20;;;;;;;;;;4912627;29;20024;-62
2022/07/06 09:49:21;;;;;;;7.22;1.45;;;;;;;;;;4912970;29;20413;-62
2022/07/06 09:51:50;;;;;;;0.00;0.00;;;;;;;;;;4912536;29;20028;-61
2022/07/06 09:54:16;;;;;;;0.00;0.00;;;;;;;;;;4913197;29;20036;-62
2022/07/06 09:56:42;;;;;;;0.00;0.00;;;;;;;;;;4912466;29;20032;-61
2022/07/06 09:59:11;;;;;;;0.00;0.00;;;;;;;;;;4911280;29;20043;-61
2022/07/06 10:01:37;;;;;;;0.00;0.00;;;;;;;;;;4895502;29;20062;-62
2022/07/06 10:04:02;;;;;;;0.50;0.50;;;;;;;;;;4912820;29;20494;-62
2022/07/06 10:06:27;;;;;;;0.00;0.00;;;;;;;;;;4912299;29;20029;-60
2022/07/06 10:08:57;;;;;;;0.00;0.00;;;;;;;;;;4913734;29;20521;-62
2022/07/06 10:11:22;;;;;;;;;;;;;;;;;;4913462;29;20564;-62
2022/07/06 10:13:48;;;;;;;0.00;0.00;;;;;;;;;;4911999;29;20584;-61
2022/07/06 10:16:14;;;;;;;0.00;0.00;;;;;;;;;;4911532;29;20127;-60
2022/07/06 10:18:40;;;;;;;0.00;0.00;;;;;;;;;;4912117;29;20112;-61
2022/07/06 10:21:05;;;;;;;16.33;1.45;;;;;;;;;;4911439;29;20474;-61
2022/07/06 10:23:31;;;;;;;0.00;0.00;;;;;;;;;;4912434;29;20075;-61
2022/07/06 10:25:57;;;;;;;0.00;0.00;;;;;;;;;;4912585;29;20039;-61
2022/07/06 10:28:22;;;;;;;0.00;0.00;;;;;;;;;;4912569;29;20108;-60
2022/07/06 10:30:48;;;;;;;0.08;0.08;;;;;;;;;;4895030;29;20040;-61
2022/07/06 10:33:14;;;;;;;0.00;0.00;;;;;;;;;;4911098;29;20418;-61
2022/07/06 10:35:40;;;;;;;0.00;0.00;;;;;;;;;;4913281;29;20032;-61
2022/07/06 10:38:06;;;;;;;0.00;0.00;;;;;;;;;;4913335;29;20072;-62
2022/07/06 10:43:15;;;;;;;0.00;0.00;;;;;;;;;;4914969;29;20047;-62
2022/07/06 10:45:43;;;;;;;0.00;0.00;;;;;;;;;;4915200;29;20024;-62
2022/07/06 10:48:11;;;;;;;0.00;0.00;;;;;;;;;;4914568;29;20032;-62
2022/07/06 10:50:41;;;;;;;0.00;0.00;;;;;;;;;;4915573;29;20036;-61
2022/07/06 10:53:16;;;;;;;0.30;0.20;;;;;;;;;;4916249;29;20043;-62
2022/07/06 10:55:47;;;;;;;0.00;0.00;;;;;;;;;;4915373;29;20397;-59
2022/07/06 10:58:12;;;;;;;0.20;0.20;;;;;;;;;;4916017;29;20020;-58
2022/07/06 11:00:54;;;;;;;0.57;0.57;;;;;;;;;;4915243;29;20035;-59
2022/07/06 11:03:45;;;;;;;0.00;0.00;;;;;;;;;;4915820;29;20055;-60
2022/07/06 11:06:11;;;;;;;0.08;0.08;;;;;;;;;;4880394;29;20047;-61
2022/07/06 11:08:47;;;;;;;0.00;0.00;;;;;;;;;;4915805;29;20139;-60
2022/07/06 11:11:14;;;;;;;0.00;0.00;;;;;;;;;;4915785;29;20498;-59
2022/07/06 11:13:49;;;;;;;0.20;0.20;;;;;;;;;;4915248;29;20039;-60
2022/07/06 11:16:15;;;;;;;0.00;0.00;;;;;;;;;;4915502;29;20035;-60
2022/07/06 11:18:42;;;;;;;0.00;0.00;;;;;;;;;;4915321;29;20024;-59
2022/07/06 11:21:16;;;;;;;0.00;0.00;;;;;;;;;;4915474;29;20090;-59
2022/07/06 11:23:42;;;;;;;0.00;0.00;;;;;;;;;;4915165;29;20028;-60
2022/07/06 11:26:07;;;;;;;0.00;0.00;;;;;;;;;;4915191;29;20508;-60
2022/07/06 11:28:33;;;;;;;0.00;0.00;;;;;;;;;;4914788;29;20474;-60
2022/07/06 11:30:59;;;;;;;0.20;0.20;;;;;;;;;;4914843;29;20165;-60
2022/07/06 11:33:28;;;;;;;0.20;0.20;;;;;;;;;;4912733;29;20050;-59
2022/07/06 11:36:10;;;;;;;5.47;0.10;;;;;;;;;;4914607;29;20028;-60
2022/07/06 11:38:35;;;;;;;0.00;0.00;;;;;;;;;;4914774;29;20092;-60
2022/07/06 11:41:01;;;;;;;0.00;0.00;;;;;;;;;;4914848;29;20028;-59
2022/07/06 11:43:26;;;;;;;0.00;0.00;;;;;;;;;;4915049;29;20035;-59
2022/07/06 11:45:51;;;;;;;0.00;0.00;;;;;;;;;;4914131;29;20256;-59
2022/07/06 11:48:16;;;;;;;0.00;0.00;;;;;;;;;;4914765;29;20107;-59
2022/07/06 11:50:42;;;;;;;0.00;0.00;;;;;;;;;;4914580;29;20024;-59
2022/07/06 11:53:07;;;;;;;0.00;0.00;;;;;;;;;;4914633;29;20032;-59
2022/07/06 11:55:33;;;;;;;0.30;0.30;;;;;;;;;;4914481;29;20028;-59
2022/07/06 11:58:00;;;;;;;0.00;0.00;;;;;;;;;;4914802;29;20028;-60
2022/07/06 12:00:25;;;;;;;0.00;0.00;;;;;;;;;;4914052;29;20020;-59
2022/07/06 12:03:00;;;;;;;0.00;0.00;;;;;;;;;;4914230;29;20579;-60
2022/07/06 12:05:34;;;;;;;0.00;0.00;;;;;;;;;;4913250;29;20031;-60
2022/07/06 12:08:03;;;;;;;0.00;0.00;;;;;;;;;;4912562;29;20115;-60
2022/07/06 12:10:35;;;;;;;0.00;0.00;;;;;;;;;;4913972;29;20072;-60
2022/07/06 12:13:04;;;;;;;0.00;0.00;;;;;;;;;;4928745;29;20036;-59
2022/07/06 12:15:29;;;;;;;0.00;0.00;;;;;;;;;;4913889;29;20466;-59
2022/07/06 12:17:54;;;;;;;1.00;0.17;;;;;;;;;;4913900;29;20095;-59
2022/07/06 12:20:20;;;;;;;0.20;0.20;;;;;;;;;;4914469;29;20020;-59
2022/07/06 12:22:45;;;;;;;0.00;0.00;;;;;;;;;;4913827;29;20264;-59
2022/07/06 12:25:10;;;;;;;0.00;0.00;;;;;;;;;;4913931;29;20024;-60
2022/07/06 12:27:35;;;;;;;0.00;0.00;;;;;;;;;;4913956;29;20101;-59
2022/07/06 12:30:11;;;;;;;0.00;0.00;;;;;;;;;;4911572;29;20484;-60
2022/07/06 12:32:36;;;;;;;3.45;1.33;;;;;;;;;;4913254;29;20047;-59
2022/07/06 12:35:06;;;;;;;0.00;0.00;;;;;;;;;;4914086;29;20497;-59
2022/07/06 12:37:31;;;;;;;0.52;0.10;;;;;;;;;;4913480;29;20024;-60
2022/07/06 12:39:56;;;;;;;0.05;0.05;;;;;;;;;;4913705;29;20028;-60
2022/07/06 12:42:22;;;;;;;0.20;0.20;;;;;;;;;;4913623;29;20028;-60
2022/07/06 12:44:48;;;;;;;0.00;0.00;;;;;;;;;;4913184;29;20016;-61
2022/07/06 12:47:16;;;;;;;0.73;0.73;;;;;;;;;;4910350;29;20107;-60
2022/07/06 12:49:42;;;;;;;0.07;0.07;;;;;;;;;;4913644;29;20099;-60
2022/07/06 12:52:12;;;;;;;0.10;0.00;;;;;;;;;;4913621;29;20020;-59
2022/07/06 12:54:41;;;;;;;0.00;0.00;;;;;;;;;;4913850;29;20016;-60
2022/07/06 12:57:14;;;;;;;0.00;0.00;;;;;;;;;;4910928;29;20036;-60
2022/07/06 12:59:44;;;;;;;0.00;0.00;;;;;;;;;;4908291;29;20844;-61
2022/07/06 13:02:17;;;;;;;0.00;0.00;;;;;;;;;;4911958;29;20035;-61
2022/07/06 13:04:42;;;;;;;0.00;0.00;;;;;;;;;;4912451;29;20382;-59
2022/07/06 13:07:17;;;;;;;0.00;0.00;;;;;;;;;;4913239;29;20035;-61
2022/07/06 13:09:43;;;;;;;0.00;0.00;;;;;;;;;;4913536;29;20442;-61
2022/07/06 13:12:08;;;;;;;0.00;0.00;;;;;;;;;;4913634;29;20028;-61
2022/07/06 13:14:33;;;;;;;0.00;0.00;;;;;;;;;;4913281;29;20263;-62
2022/07/06 13:16:59;;;;;;;0.00;0.00;;;;;;;;;;4912846;29;20466;-62
2022/07/06 13:19:24;;;;;;;0.00;0.00;;;;;;;;;;4913779;29;20382;-62
2022/07/06 13:21:50;;;;;;;0.00;0.00;;;;;;;;;;4912734;29;20035;-60
2022/07/06 13:24:15;;;;;;;0.00;0.00;;;;;;;;;;4913759;29;20275;-61
2022/07/06 13:26:41;;;;;;;0.05;0.05;;;;;;;;;;4912876;29;20620;-61
2022/07/06 13:29:06;;;;;;;0.00;0.00;;;;;;;;;;4912649;29;20431;-61
2022/07/06 13:31:31;;;;;;;0.00;0.00;;;;;;;;;;4913037;29;20024;-61
2022/07/06 13:33:56;;;;;;;0.38;0.38;;;;;;;;;;4913129;29;20071;-61
2022/07/06 13:36:25;;;;;;;0.00;0.00;;;;;;;;;;4913145;29;20385;-62
2022/07/06 13:38:50;;;;;;;0.00;0.00;;;;;;;;;;4909943;29;20064;-62
2022/07/06 13:41:15;;;;;;;0.00;0.00;;;;;;;;;;4906939;29;20269;-62
2022/07/06 13:43:41;;;;;;;0.55;0.55;;;;;;;;;;4911896;29;20083;-62
2022/07/06 13:46:07;;;;;;;0.43;0.35;;;;;;;;;;4912821;29;20494;-61
2022/07/06 13:48:33;;;;;;;0.00;0.00;;;;;;;;;;4912913;29;20024;-61
2022/07/06 13:50:58;;;;;;;0.00;0.00;;;;;;;;;;4912402;29;20058;-61
2022/07/06 13:53:23;;;;;;;0.00;0.00;;;;;;;;;;4911873;29;20142;-62
2022/07/06 13:55:49;;;;;;;0.00;0.00;;;;;;;;;;4911804;29;20079;-60
2022/07/06 13:58:14;;;;;;;0.00;0.00;;;;;;;;;;4910458;29;20020;-61
2022/07/06 14:00:39;;;;;;;0.00;0.00;;;;;;;;;;4910563;29;20024;-62
2022/07/06 14:03:04;;;;;;;0.00;0.00;;;;;;;;;;4912499;29;20032;-62
2022/07/06 14:05:30;;;;;;;0.00;0.00;;;;;;;;;;4912461;29;20064;-62
2022/07/06 14:07:55;;;;;;;0.10;0.10;;;;;;;;;;4912601;29;20760;-61
2022/07/06 14:10:20;;;;;;;0.00;0.00;;;;;;;;;;4912680;29;20028;-60
2022/07/06 14:12:46;;;;;;;0.10;0.10;;;;;;;;;;4909739;29;20028;-61
2022/07/06 14:15:11;;;;;;;0.00;0.00;;;;;;;;;;4912585;29;20025;-61
2022/07/06 14:17:36;;;;;;;0.00;0.00;;;;;;;;;;4915201;29;20714;-61
2022/07/06 14:20:02;;;;;;;0.00;0.00;;;;;;;;;;4916572;29;20055;-61
2022/07/06 14:22:27;;;;;;;0.05;0.05;;;;;;;;;;4916634;29;20055;-61
2022/07/06 14:24:53;;;;;;;0.20;0.20;;;;;;;;;;4915414;29;20431;-61
2022/07/06 14:27:18;;;;;;;0.00;0.00;;;;;;;;;;4915986;29;20032;-61
2022/07/06 14:29:43;;;;;;;0.00;0.00;;;;;;;;;;4915759;29;20020;-61
2022/07/06 14:32:08;;;;;;;0.00;0.00;;;;;;;;;;4916066;29;20657;-61
2022/07/06 14:34:33;;;;;;;0.00;0.00;;;;;;;;;;4915436;29;20102;-62
2022/07/06 14:36:59;;;;;;;0.03;0.03;;;;;;;;;;4915689;29;20111;-62
2022/07/06 14:39:24;;;;;;;0.00;0.00;;;;;;;;;;4916434;29;20031;-62
2022/07/06 14:41:49;;;;;;;0.05;0.05;;;;;;;;;;4915201;29;20031;-62
2022/07/06 14:44:14;;;;;;;0.20;0.15;;;;;;;;;;4916223;29;20035;-61